2J9

Quincy Municipal Airport

Quincy, Florida, USA
METAR K2J9 180015Z AUTO 00000KT 10SM CLR 11/09 A3020 RMK AO2
Observed Flight Rules
Nov-18 @ 00:15 UTC (7 minutes ago) Visual Flight Rules
Visibility Clouds
10 miles
  • Clear skies
Temperatures Readings
Current 11°C / 52°F
Dewpoint 9°C / 48°F
Humidity 88%
Altimeter 30.2" Hg
Pressure 1023 hPa
Elevation 69
METAR K2J9 180015Z AUTO 00000KT 10SM CLR 11/09 A3020 RMK AO2
Observed Flight Rules
Nov-18 @ 00:15 UTC
(7 minutes ago)
VFR
Clouds
  • Clear skies
Temperature Dewpoint
11°C / 52°F 9°C / 48°F
Humidity Altimeter Pressure
88% 30.2" Hg 1023 hPa